sensor_id;sensor_type;location;lat;lon;timestamp;P1;durP1;ratioP1;P2;durP2;ratioP2
73271;SDS011;61497;51.088;5.886;2023-02-10T14:23:23;26.95;;;24.15;;
73271;SDS011;61497;51.088;5.886;2023-02-10T14:25:53;27.03;;;24.10;;
73271;SDS011;61497;51.088;5.886;2023-02-10T14:28:20;25.60;;;23.00;;
73271;SDS011;61497;51.088;5.886;2023-02-10T14:30:46;25.57;;;22.97;;
73271;SDS011;61497;51.088;5.886;2023-02-10T14:33:19;23.45;;;20.95;;
73271;SDS011;61497;51.088;5.886;2023-02-10T14:35:52;25.08;;;22.38;;
73271;SDS011;61497;51.088;5.886;2023-02-10T14:38:19;25.45;;;22.88;;
73271;SDS011;61497;51.088;5.886;2023-02-10T14:40:45;27.13;;;24.00;;
73271;SDS011;61497;51.088;5.886;2023-02-10T14:43:21;26.30;;;23.27;;
73271;SDS011;61497;51.088;5.886;2023-02-10T14:45:46;26.80;;;24.20;;
73271;SDS011;61497;51.088;5.886;2023-02-10T14:48:12;26.97;;;24.20;;
73271;SDS011;61497;51.088;5.886;2023-02-10T14:50:39;27.92;;;25.02;;
73271;SDS011;61497;51.088;5.886;2023-02-10T14:53:04;27.37;;;24.57;;
73271;SDS011;61497;51.088;5.886;2023-02-10T14:55:34;27.43;;;24.53;;
73271;SDS011;61497;51.088;5.886;2023-02-10T14:58:09;27.55;;;24.55;;
73271;SDS011;61497;51.088;5.886;2023-02-10T15:00:35;27.88;;;24.63;;
73271;SDS011;61497;51.088;5.886;2023-02-10T15:03:01;29.40;;;25.83;;
73271;SDS011;61497;51.088;5.886;2023-02-10T15:05:30;29.20;;;23.70;;
73271;SDS011;61497;51.088;5.886;2023-02-10T15:07:56;32.13;;;25.10;;
73271;SDS011;61497;51.088;5.886;2023-02-10T15:10:33;31.30;;;25.08;;
73271;SDS011;61497;51.088;5.886;2023-02-10T15:12:59;32.83;;;25.30;;
73271;SDS011;61497;51.088;5.886;2023-02-10T15:18:00;32.35;;;25.25;;
73271;SDS011;61497;51.088;5.886;2023-02-10T15:20:31;33.33;;;26.02;;
73271;SDS011;61497;51.088;5.886;2023-02-10T15:27:53;34.80;;;26.55;;
73271;SDS011;61497;51.088;5.886;2023-02-10T15:32:48;36.17;;;26.47;;
73271;SDS011;61497;51.088;5.886;2023-02-10T15:35:14;35.75;;;27.45;;
73271;SDS011;61497;51.088;5.886;2023-02-10T15:37:39;38.23;;;27.37;;
73271;SDS011;61497;51.088;5.886;2023-02-10T15:40:19;40.03;;;28.33;;
73271;SDS011;61497;51.088;5.886;2023-02-10T15:42:55;35.97;;;25.92;;
73271;SDS011;61497;51.088;5.886;2023-02-10T15:45:21;36.20;;;27.13;;
73271;SDS011;61497;51.088;5.886;2023-02-10T15:48:08;36.42;;;25.50;;
73271;SDS011;61497;51.088;5.886;2023-02-10T15:50:34;36.58;;;27.33;;
73271;SDS011;61497;51.088;5.886;2023-02-10T15:53:00;38.77;;;26.10;;
73271;SDS011;61497;51.088;5.886;2023-02-10T15:55:33;40.83;;;27.20;;
73271;SDS011;61497;51.088;5.886;2023-02-10T15:57:59;40.50;;;27.38;;
73271;SDS011;61497;51.088;5.886;2023-02-10T16:00:28;39.80;;;27.90;;
73271;SDS011;61497;51.088;5.886;2023-02-10T16:02:54;39.33;;;27.40;;
73271;SDS011;61497;51.088;5.886;2023-02-10T16:05:19;39.57;;;27.17;;
73271;SDS011;61497;51.088;5.886;2023-02-10T16:07:45;42.75;;;28.40;;
73271;SDS011;61497;51.088;5.886;2023-02-10T16:10:13;39.17;;;26.83;;
73271;SDS011;61497;51.088;5.886;2023-02-10T16:12:39;40.92;;;27.85;;
73271;SDS011;61497;51.088;5.886;2023-02-10T16:15:04;41.73;;;27.07;;
73271;SDS011;61497;51.088;5.886;2023-02-10T16:17:29;40.03;;;25.47;;
73271;SDS011;61497;51.088;5.886;2023-02-10T16:19:56;40.05;;;25.17;;
73271;SDS011;61497;51.088;5.886;2023-02-10T16:22:22;37.87;;;25.90;;
73271;SDS011;61497;51.088;5.886;2023-02-10T16:24:47;40.57;;;23.70;;
73271;SDS011;61497;51.088;5.886;2023-02-10T16:27:13;41.30;;;27.20;;
73271;SDS011;61497;51.088;5.886;2023-02-10T16:29:38;40.88;;;26.15;;
73271;SDS011;61497;51.088;5.886;2023-02-10T16:32:04;43.77;;;26.03;;
73271;SDS011;61497;51.088;5.886;2023-02-10T16:34:29;44.10;;;26.60;;
73271;SDS011;61497;51.088;5.886;2023-02-10T16:36:56;43.93;;;28.80;;
73271;SDS011;61497;51.088;5.886;2023-02-10T16:39:21;45.55;;;28.52;;
73271;SDS011;61497;51.088;5.886;2023-02-10T16:41:49;45.95;;;28.92;;
73271;SDS011;61497;51.088;5.886;2023-02-10T16:44:15;45.20;;;28.07;;
73271;SDS011;61497;51.088;5.886;2023-02-10T16:46:40;44.70;;;29.35;;
73271;SDS011;61497;51.088;5.886;2023-02-10T16:49:06;47.77;;;28.83;;
73271;SDS011;61497;51.088;5.886;2023-02-10T16:51:32;43.15;;;26.75;;
73271;SDS011;61497;51.088;5.886;2023-02-10T16:53:57;49.37;;;28.43;;
73271;SDS011;61497;51.088;5.886;2023-02-10T16:56:22;48.47;;;29.07;;
73271;SDS011;61497;51.088;5.886;2023-02-10T16:58:49;46.23;;;28.80;;
73271;SDS011;61497;51.088;5.886;2023-02-10T17:01:14;50.28;;;29.35;;
73271;SDS011;61497;51.088;5.886;2023-02-10T17:03:41;51.95;;;28.45;;
73271;SDS011;61497;51.088;5.886;2023-02-10T17:06:06;51.60;;;27.40;;
73271;SDS011;61497;51.088;5.886;2023-02-10T17:08:32;48.20;;;28.55;;
73271;SDS011;61497;51.088;5.886;2023-02-10T17:10:57;48.00;;;27.57;;
73271;SDS011;61497;51.088;5.886;2023-02-10T17:13:23;46.03;;;25.80;;
73271;SDS011;61497;51.088;5.886;2023-02-10T17:15:48;41.63;;;25.50;;
73271;SDS011;61497;51.088;5.886;2023-02-10T17:18:13;50.20;;;27.97;;
73271;SDS011;61497;51.088;5.886;2023-02-10T17:20:39;45.43;;;27.07;;
73271;SDS011;61497;51.088;5.886;2023-02-10T17:23:04;47.17;;;26.93;;
73271;SDS011;61497;51.088;5.886;2023-02-10T17:25:30;46.72;;;27.45;;
73271;SDS011;61497;51.088;5.886;2023-02-10T17:27:56;44.60;;;26.05;;
73271;SDS011;61497;51.088;5.886;2023-02-10T17:30:22;48.10;;;26.23;;
73271;SDS011;61497;51.088;5.886;2023-02-10T17:32:48;42.90;;;26.23;;
73271;SDS011;61497;51.088;5.886;2023-02-10T17:35:18;46.73;;;24.93;;
73271;SDS011;61497;51.088;5.886;2023-02-10T17:37:43;45.28;;;25.77;;
73271;SDS011;61497;51.088;5.886;2023-02-10T17:40:13;45.77;;;25.53;;
73271;SDS011;61497;51.088;5.886;2023-02-10T17:42:44;47.15;;;27.23;;
73271;SDS011;61497;51.088;5.886;2023-02-10T17:45:11;46.15;;;26.05;;
73271;SDS011;61497;51.088;5.886;2023-02-10T17:47:36;48.87;;;27.93;;
73271;SDS011;61497;51.088;5.886;2023-02-10T17:50:02;49.40;;;26.23;;
73271;SDS011;61497;51.088;5.886;2023-02-10T17:52:27;46.75;;;26.50;;
73271;SDS011;61497;51.088;5.886;2023-02-10T17:54:52;48.10;;;25.37;;
73271;SDS011;61497;51.088;5.886;2023-02-10T17:57:18;46.13;;;26.93;;
73271;SDS011;61497;51.088;5.886;2023-02-10T17:59:43;50.17;;;26.13;;
73271;SDS011;61497;51.088;5.886;2023-02-10T18:02:09;45.17;;;24.13;;
73271;SDS011;61497;51.088;5.886;2023-02-10T18:04:35;48.20;;;26.37;;
73271;SDS011;61497;51.088;5.886;2023-02-10T18:07:00;47.83;;;26.30;;
73271;SDS011;61497;51.088;5.886;2023-02-10T18:09:25;48.70;;;26.17;;
73271;SDS011;61497;51.088;5.886;2023-02-10T18:11:52;51.03;;;27.00;;
73271;SDS011;61497;51.088;5.886;2023-02-10T18:14:17;51.30;;;26.97;;
73271;SDS011;61497;51.088;5.886;2023-02-10T18:16:42;51.17;;;26.67;;
73271;SDS011;61497;51.088;5.886;2023-02-10T18:19:08;50.92;;;26.65;;
73271;SDS011;61497;51.088;5.886;2023-02-10T18:21:34;52.80;;;26.93;;
73271;SDS011;61497;51.088;5.886;2023-02-10T18:23:59;49.77;;;25.40;;
73271;SDS011;61497;51.088;5.886;2023-02-10T18:26:26;53.43;;;28.13;;
73271;SDS011;61497;51.088;5.886;2023-02-10T18:28:51;52.10;;;26.37;;
73271;SDS011;61497;51.088;5.886;2023-02-10T18:31:16;53.17;;;25.77;;
73271;SDS011;61497;51.088;5.886;2023-02-10T18:33:42;51.83;;;26.77;;
73271;SDS011;61497;51.088;5.886;2023-02-10T18:36:08;52.67;;;27.33;;
73271;SDS011;61497;51.088;5.886;2023-02-10T18:38:34;56.47;;;29.07;;
73271;SDS011;61497;51.088;5.886;2023-02-10T18:40:59;54.47;;;28.10;;
73271;SDS011;61497;51.088;5.886;2023-02-10T18:43:24;57.63;;;28.93;;
73271;SDS011;61497;51.088;5.886;2023-02-10T18:45:50;53.97;;;26.93;;
73271;SDS011;61497;51.088;5.886;2023-02-10T18:48:15;56.42;;;27.85;;
73271;SDS011;61497;51.088;5.886;2023-02-10T18:50:43;55.70;;;28.53;;
73271;SDS011;61497;51.088;5.886;2023-02-10T18:53:08;54.35;;;26.70;;
73271;SDS011;61497;51.088;5.886;2023-02-10T18:55:33;52.63;;;28.37;;
73271;SDS011;61497;51.088;5.886;2023-02-10T18:57:59;58.17;;;27.90;;
73271;SDS011;61497;51.088;5.886;2023-02-10T19:00:27;57.55;;;26.45;;
73271;SDS011;61497;51.088;5.886;2023-02-10T19:02:52;57.63;;;27.87;;
73271;SDS011;61497;51.088;5.886;2023-02-10T19:05:17;44.70;;;22.40;;
73271;SDS011;61497;51.088;5.886;2023-02-10T19:07:42;56.17;;;28.57;;
73271;SDS011;61497;51.088;5.886;2023-02-10T19:10:08;56.03;;;27.40;;
73271;SDS011;61497;51.088;5.886;2023-02-10T19:12:33;45.47;;;24.37;;
73271;SDS011;61497;51.088;5.886;2023-02-10T19:14:58;56.83;;;28.43;;
73271;SDS011;61497;51.088;5.886;2023-02-10T19:17:23;56.47;;;26.97;;
73271;SDS011;61497;51.088;5.886;2023-02-10T19:19:49;54.67;;;27.13;;
73271;SDS011;61497;51.088;5.886;2023-02-10T19:22:14;55.20;;;28.93;;
73271;SDS011;61497;51.088;5.886;2023-02-10T19:24:39;57.30;;;28.63;;
73271;SDS011;61497;51.088;5.886;2023-02-10T19:27:04;55.43;;;26.53;;
73271;SDS011;61497;51.088;5.886;2023-02-10T19:29:30;60.00;;;28.90;;
73271;SDS011;61497;51.088;5.886;2023-02-10T19:31:55;56.00;;;27.10;;
73271;SDS011;61497;51.088;5.886;2023-02-10T19:34:20;51.60;;;26.23;;
73271;SDS011;61497;51.088;5.886;2023-02-10T19:36:46;54.73;;;25.73;;
73271;SDS011;61497;51.088;5.886;2023-02-10T19:39:11;54.97;;;28.00;;
73271;SDS011;61497;51.088;5.886;2023-02-10T19:41:37;50.90;;;26.92;;
73271;SDS011;61497;51.088;5.886;2023-02-10T19:44:02;54.03;;;27.57;;
73271;SDS011;61497;51.088;5.886;2023-02-10T19:46:28;51.10;;;25.73;;
73271;SDS011;61497;51.088;5.886;2023-02-10T19:48:53;52.47;;;26.13;;
73271;SDS011;61497;51.088;5.886;2023-02-10T19:51:19;52.00;;;26.80;;
73271;SDS011;61497;51.088;5.886;2023-02-10T19:53:46;49.97;;;24.83;;
73271;SDS011;61497;51.088;5.886;2023-02-10T19:56:11;50.30;;;23.77;;
73271;SDS011;61497;51.088;5.886;2023-02-10T19:58:36;53.33;;;27.17;;
73271;SDS011;61497;51.088;5.886;2023-02-10T20:01:15;55.33;;;27.55;;
73271;SDS011;61497;51.088;5.886;2023-02-10T20:03:41;52.83;;;25.27;;
73271;SDS011;61497;51.088;5.886;2023-02-10T20:06:07;56.70;;;28.50;;
73271;SDS011;61497;51.088;5.886;2023-02-10T20:08:32;54.00;;;27.00;;
73271;SDS011;61497;51.088;5.886;2023-02-10T20:10:58;55.07;;;26.63;;
73271;SDS011;61497;51.088;5.886;2023-02-10T20:13:23;54.43;;;27.80;;
73271;SDS011;61497;51.088;5.886;2023-02-10T20:15:49;58.23;;;26.20;;
73271;SDS011;61497;51.088;5.886;2023-02-10T20:18:15;55.43;;;27.20;;
73271;SDS011;61497;51.088;5.886;2023-02-10T20:20:44;51.13;;;26.70;;
73271;SDS011;61497;51.088;5.886;2023-02-10T20:23:10;48.22;;;24.65;;
73271;SDS011;61497;51.088;5.886;2023-02-10T20:25:36;49.35;;;26.25;;
73271;SDS011;61497;51.088;5.886;2023-02-10T20:28:01;55.70;;;26.37;;
73271;SDS011;61497;51.088;5.886;2023-02-10T20:30:26;54.20;;;26.97;;
73271;SDS011;61497;51.088;5.886;2023-02-10T20:32:52;52.00;;;27.30;;
73271;SDS011;61497;51.088;5.886;2023-02-10T20:35:17;56.03;;;27.10;;
73271;SDS011;61497;51.088;5.886;2023-02-10T20:37:42;48.47;;;24.50;;
73271;SDS011;61497;51.088;5.886;2023-02-10T20:40:07;44.10;;;23.23;;
73271;SDS011;61497;51.088;5.886;2023-02-10T20:42:33;52.10;;;26.93;;
73271;SDS011;61497;51.088;5.886;2023-02-10T20:44:58;50.90;;;25.67;;
73271;SDS011;61497;51.088;5.886;2023-02-10T20:47:28;55.00;;;27.80;;
73271;SDS011;61497;51.088;5.886;2023-02-10T20:49:53;51.17;;;28.03;;
73271;SDS011;61497;51.088;5.886;2023-02-10T20:52:19;55.70;;;28.03;;
73271;SDS011;61497;51.088;5.886;2023-02-10T20:54:44;56.03;;;27.77;;
73271;SDS011;61497;51.088;5.886;2023-02-10T20:57:09;54.97;;;28.13;;
73271;SDS011;61497;51.088;5.886;2023-02-10T20:59:34;53.77;;;28.23;;
73271;SDS011;61497;51.088;5.886;2023-02-10T21:01:59;47.60;;;26.93;;
73271;SDS011;61497;51.088;5.886;2023-02-10T21:04:24;50.87;;;27.87;;
73271;SDS011;61497;51.088;5.886;2023-02-10T21:06:50;53.10;;;27.90;;
73271;SDS011;61497;51.088;5.886;2023-02-10T21:09:15;52.35;;;27.83;;
73271;SDS011;61497;51.088;5.886;2023-02-10T21:11:40;52.20;;;27.10;;
73271;SDS011;61497;51.088;5.886;2023-02-10T21:14:05;49.95;;;27.75;;
73271;SDS011;61497;51.088;5.886;2023-02-10T21:16:31;51.60;;;28.23;;
73271;SDS011;61497;51.088;5.886;2023-02-10T21:18:56;48.40;;;27.30;;
73271;SDS011;61497;51.088;5.886;2023-02-10T21:21:21;51.80;;;28.17;;
73271;SDS011;61497;51.088;5.886;2023-02-10T21:23:47;52.33;;;27.93;;
73271;SDS011;61497;51.088;5.886;2023-02-10T21:26:12;54.10;;;27.17;;
73271;SDS011;61497;51.088;5.886;2023-02-10T21:28:38;47.70;;;25.73;;
73271;SDS011;61497;51.088;5.886;2023-02-10T21:31:07;51.40;;;28.00;;
73271;SDS011;61497;51.088;5.886;2023-02-10T21:33:32;46.77;;;26.47;;
73271;SDS011;61497;51.088;5.886;2023-02-10T21:35:57;51.70;;;27.27;;
73271;SDS011;61497;51.088;5.886;2023-02-10T21:38:23;49.63;;;27.77;;
73271;SDS011;61497;51.088;5.886;2023-02-10T21:40:48;47.30;;;27.40;;
73271;SDS011;61497;51.088;5.886;2023-02-10T21:43:13;50.83;;;28.53;;
73271;SDS011;61497;51.088;5.886;2023-02-10T21:45:39;52.30;;;28.03;;
73271;SDS011;61497;51.088;5.886;2023-02-10T21:48:10;50.17;;;26.95;;
73271;SDS011;61497;51.088;5.886;2023-02-10T21:50:36;46.70;;;25.27;;
73271;SDS011;61497;51.088;5.886;2023-02-10T21:53:01;45.90;;;25.10;;
73271;SDS011;61497;51.088;5.886;2023-02-10T21:55:26;44.50;;;24.47;;
73271;SDS011;61497;51.088;5.886;2023-02-10T21:57:52;48.53;;;27.50;;
73271;SDS011;61497;51.088;5.886;2023-02-10T22:00:17;43.40;;;24.03;;
73271;SDS011;61497;51.088;5.886;2023-02-10T22:02:42;42.87;;;24.27;;
73271;SDS011;61497;51.088;5.886;2023-02-10T22:05:08;44.30;;;25.23;;
73271;SDS011;61497;51.088;5.886;2023-02-10T22:07:34;45.87;;;27.30;;
73271;SDS011;61497;51.088;5.886;2023-02-10T22:09:59;44.72;;;26.60;;
73271;SDS011;61497;51.088;5.886;2023-02-10T22:12:24;46.43;;;26.13;;
73271;SDS011;61497;51.088;5.886;2023-02-10T22:14:50;41.97;;;24.07;;
73271;SDS011;61497;51.088;5.886;2023-02-10T22:17:15;46.92;;;27.00;;
73271;SDS011;61497;51.088;5.886;2023-02-10T22:19:40;43.50;;;25.10;;
73271;SDS011;61497;51.088;5.886;2023-02-10T22:22:06;46.87;;;25.77;;
73271;SDS011;61497;51.088;5.886;2023-02-10T22:24:31;40.30;;;22.33;;
73271;SDS011;61497;51.088;5.886;2023-02-10T22:26:56;44.03;;;24.60;;
73271;SDS011;61497;51.088;5.886;2023-02-10T22:29:21;41.43;;;24.27;;
73271;SDS011;61497;51.088;5.886;2023-02-10T22:31:47;37.17;;;22.53;;
73271;SDS011;61497;51.088;5.886;2023-02-10T22:34:14;40.65;;;23.02;;
73271;SDS011;61497;51.088;5.886;2023-02-10T22:36:40;39.90;;;22.83;;
73271;SDS011;61497;51.088;5.886;2023-02-10T22:39:05;44.50;;;24.03;;
73271;SDS011;61497;51.088;5.886;2023-02-10T22:41:31;38.40;;;21.17;;
73271;SDS011;61497;51.088;5.886;2023-02-10T22:43:57;38.60;;;21.43;;
73271;SDS011;61497;51.088;5.886;2023-02-10T22:46:22;43.97;;;24.42;;
73271;SDS011;61497;51.088;5.886;2023-02-10T22:48:48;43.13;;;24.07;;
73271;SDS011;61497;51.088;5.886;2023-02-10T22:51:24;44.03;;;26.15;;
73271;SDS011;61497;51.088;5.886;2023-02-10T22:53:53;45.95;;;25.20;;
73271;SDS011;61497;51.088;5.886;2023-02-10T22:56:20;40.85;;;24.63;;
73271;SDS011;61497;51.088;5.886;2023-02-10T22:58:45;40.00;;;24.90;;
73271;SDS011;61497;51.088;5.886;2023-02-10T23:01:11;44.40;;;25.47;;
73271;SDS011;61497;51.088;5.886;2023-02-10T23:03:37;40.87;;;24.57;;
73271;SDS011;61497;51.088;5.886;2023-02-10T23:06:02;45.23;;;25.03;;
73271;SDS011;61497;51.088;5.886;2023-02-10T23:08:28;44.78;;;26.13;;
73271;SDS011;61497;51.088;5.886;2023-02-10T23:10:53;42.60;;;23.70;;
73271;SDS011;61497;51.088;5.886;2023-02-10T23:13:18;42.13;;;24.67;;
73271;SDS011;61497;51.088;5.886;2023-02-10T23:15:44;42.50;;;23.87;;
73271;SDS011;61497;51.088;5.886;2023-02-10T23:18:09;43.97;;;24.57;;
73271;SDS011;61497;51.088;5.886;2023-02-10T23:20:34;43.35;;;25.65;;
73271;SDS011;61497;51.088;5.886;2023-02-10T23:22:59;42.67;;;25.17;;
73271;SDS011;61497;51.088;5.886;2023-02-10T23:25:25;44.60;;;24.47;;
73271;SDS011;61497;51.088;5.886;2023-02-10T23:27:50;48.33;;;26.63;;
73271;SDS011;61497;51.088;5.886;2023-02-10T23:30:15;41.33;;;23.77;;
73271;SDS011;61497;51.088;5.886;2023-02-10T23:32:41;40.93;;;24.10;;
73271;SDS011;61497;51.088;5.886;2023-02-10T23:35:06;45.27;;;24.67;;
73271;SDS011;61497;51.088;5.886;2023-02-10T23:37:31;47.97;;;25.10;;
73271;SDS011;61497;51.088;5.886;2023-02-10T23:39:56;45.10;;;25.00;;
73271;SDS011;61497;51.088;5.886;2023-02-10T23:42:22;41.37;;;22.80;;
73271;SDS011;61497;51.088;5.886;2023-02-10T23:44:47;42.87;;;24.10;;
73271;SDS011;61497;51.088;5.886;2023-02-10T23:47:12;41.03;;;23.60;;
73271;SDS011;61497;51.088;5.886;2023-02-10T23:49:37;46.63;;;24.23;;
73271;SDS011;61497;51.088;5.886;2023-02-10T23:52:03;42.63;;;24.90;;
73271;SDS011;61497;51.088;5.886;2023-02-10T23:54:28;44.63;;;25.30;;
73271;SDS011;61497;51.088;5.886;2023-02-10T23:56:54;41.07;;;24.73;;
73271;SDS011;61497;51.088;5.886;2023-02-10T23:59:19;40.70;;;24.43;;
